<?xml version="1.0" encoding="UTF-8" standalone="no" ?>
<gpx xmlns="http://www.topografix.com/GPX/1/1" xmlns:xsi="http://www.w3.org/2001/XMLSchema-instance" xsi:schemaLocation="http://www.topografix.com/GPX/1/1 http://www.topografix.com/GPX/1/1/gpx.xsd" version="1.1" creator="VisuGPX - https://www.visugpx.com">
  <metadata>
    <name>detour du parcours</name>
    <desc><![CDATA[detour pour le parcours prévu par scey sur saone
]]></desc>
  </metadata>
  <trk>
    <name><![CDATA[detour]]></name>
    <trkseg>
      <trkpt lat="47.65919" lon="5.98189">
        <ele>208.38618469238</ele>
        <time>2018-09-01T12:05:42Z</time>
      </trkpt>
      <trkpt lat="47.65924" lon="5.98195">
        <ele>208.56695556641</ele>
        <time>2018-09-01T12:05:42Z</time>
      </trkpt>
      <trkpt lat="47.65874" lon="5.98285">
        <ele>208.21650695801</ele>
        <time>2018-09-01T12:05:42Z</time>
      </trkpt>
      <trkpt lat="47.65861" lon="5.98304">
        <ele>208.43354797363</ele>
        <time>2018-09-01T12:05:44Z</time>
      </trkpt>
      <trkpt lat="47.65868" lon="5.98327">
        <ele>208.76850891113</ele>
        <time>2018-09-01T12:06:05Z</time>
      </trkpt>
      <trkpt lat="47.65866" lon="5.98349">
        <ele>209.4363861084</ele>
        <time>2018-09-01T12:06:10Z</time>
      </trkpt>
      <trkpt lat="47.65855" lon="5.98384">
        <ele>211.74658203125</ele>
        <time>2018-09-01T12:06:15Z</time>
      </trkpt>
      <trkpt lat="47.65837" lon="5.98426">
        <ele>214.01689147949</ele>
        <time>2018-09-01T12:06:19Z</time>
      </trkpt>
      <trkpt lat="47.65816" lon="5.9847">
        <ele>216.0489654541</ele>
        <time>2018-09-01T12:06:26Z</time>
      </trkpt>
      <trkpt lat="47.65831" lon="5.98482">
        <ele>217.462890625</ele>
        <time>2018-09-01T12:06:35Z</time>
      </trkpt>
      <trkpt lat="47.65897" lon="5.98531">
        <ele>222.59164428711</ele>
        <time>2018-09-01T12:06:45Z</time>
      </trkpt>
      <trkpt lat="47.65903" lon="5.98536">
        <ele>222.96887207031</ele>
        <time>2018-09-01T12:06:50Z</time>
      </trkpt>
      <trkpt lat="47.65906" lon="5.98546">
        <ele>223.76702880859</ele>
        <time>2018-09-01T12:07:10Z</time>
      </trkpt>
      <trkpt lat="47.65903" lon="5.98698">
        <ele>232.68634033203</ele>
        <time>2018-09-01T12:07:12Z</time>
      </trkpt>
      <trkpt lat="47.65898" lon="5.98756">
        <ele>236.05564880371</ele>
        <time>2018-09-01T12:07:14Z</time>
      </trkpt>
      <trkpt lat="47.65891" lon="5.98816">
        <ele>238.95361328125</ele>
        <time>2018-09-01T12:07:41Z</time>
      </trkpt>
      <trkpt lat="47.65873" lon="5.98954">
        <ele>242.85591125488</ele>
        <time>2018-09-01T12:07:52Z</time>
      </trkpt>
      <trkpt lat="47.65874" lon="5.98966">
        <ele>243.14010620117</ele>
        <time>2018-09-01T12:08:03Z</time>
      </trkpt>
      <trkpt lat="47.65876" lon="5.98975">
        <ele>243.28503417969</ele>
        <time>2018-09-01T12:08:28Z</time>
      </trkpt>
      <trkpt lat="47.65891" lon="5.98984">
        <ele>243.54789733887</ele>
        <time>2018-09-01T12:08:30Z</time>
      </trkpt>
      <trkpt lat="47.65966" lon="5.99014">
        <ele>243.90705871582</ele>
        <time>2018-09-01T12:08:32Z</time>
      </trkpt>
      <trkpt lat="47.65978" lon="5.9902">
        <ele>243.91865539551</ele>
        <time>2018-09-01T12:08:36Z</time>
      </trkpt>
      <trkpt lat="47.65985" lon="5.99028">
        <ele>243.98457336426</ele>
        <time>2018-09-01T12:08:57Z</time>
      </trkpt>
      <trkpt lat="47.65995" lon="5.99046">
        <ele>244.19966125488</ele>
        <time>2018-09-01T12:09:00Z</time>
      </trkpt>
      <trkpt lat="47.66117" lon="5.99279">
        <ele>248.88006591797</ele>
        <time>2018-09-01T12:09:02Z</time>
      </trkpt>
      <trkpt lat="47.66117" lon="5.99279">
        <ele>248.88006591797</ele>
        <time>2018-09-01T12:09:06Z</time>
      </trkpt>
      <trkpt lat="47.66206" lon="5.99446">
        <ele>250.24725341797</ele>
        <time>2018-09-01T12:09:59Z</time>
      </trkpt>
      <trkpt lat="47.66214" lon="5.99463">
        <ele>250.30570983887</ele>
        <time>2018-09-01T12:09:59Z</time>
      </trkpt>
      <trkpt lat="47.66231" lon="5.99439">
        <ele>249.97311401367</ele>
        <time>2018-09-01T12:10:01Z</time>
      </trkpt>
      <trkpt lat="47.66271" lon="5.99384">
        <ele>249.87641906738</ele>
        <time>2018-09-01T12:10:22Z</time>
      </trkpt>
      <trkpt lat="47.66286" lon="5.99361">
        <ele>250.59851074219</ele>
        <time>2018-09-01T12:10:27Z</time>
      </trkpt>
      <trkpt lat="47.66292" lon="5.99348">
        <ele>251.31211853027</ele>
        <time>2018-09-01T12:10:32Z</time>
      </trkpt>
      <trkpt lat="47.663" lon="5.99322">
        <ele>252.38983154297</ele>
        <time>2018-09-01T12:10:36Z</time>
      </trkpt>
      <trkpt lat="47.66311" lon="5.99302">
        <ele>253.62835693359</ele>
        <time>2018-09-01T12:10:43Z</time>
      </trkpt>
      <trkpt lat="47.6642" lon="5.9917">
        <ele>262.11569213867</ele>
        <time>2018-09-01T12:10:52Z</time>
      </trkpt>
      <trkpt lat="47.66501" lon="5.99248">
        <ele>267.78341674805</ele>
        <time>2018-09-01T12:11:02Z</time>
      </trkpt>
      <trkpt lat="47.66585" lon="5.99267">
        <ele>271.57034301758</ele>
        <time>2018-09-01T12:11:07Z</time>
      </trkpt>
      <trkpt lat="47.66588" lon="5.99264">
        <ele>271.61499023438</ele>
        <time>2018-09-01T12:11:27Z</time>
      </trkpt>
      <trkpt lat="47.66638" lon="5.99353">
        <ele>278.60607910156</ele>
        <time>2018-09-01T12:11:29Z</time>
      </trkpt>
      <trkpt lat="47.66673" lon="5.99402">
        <ele>281.79409790039</ele>
        <time>2018-09-01T12:11:31Z</time>
      </trkpt>
      <trkpt lat="47.66758" lon="5.99534">
        <ele>285.56228637695</ele>
        <time>2018-09-01T12:11:58Z</time>
      </trkpt>
      <trkpt lat="47.66925" lon="5.99773">
        <ele>259.55438232422</ele>
        <time>2018-09-01T12:12:09Z</time>
      </trkpt>
      <trkpt lat="47.66964" lon="5.99823">
        <ele>256.44058227539</ele>
        <time>2018-09-01T12:12:20Z</time>
      </trkpt>
      <trkpt lat="47.66964" lon="5.99823">
        <ele>256.44058227539</ele>
        <time>2018-09-01T12:12:45Z</time>
      </trkpt>
      <trkpt lat="47.66905" lon="5.9984">
        <ele>250.96989440918</ele>
        <time>2018-09-01T12:12:47Z</time>
      </trkpt>
      <trkpt lat="47.66886" lon="5.9985">
        <ele>249.81097412109</ele>
        <time>2018-09-01T12:12:49Z</time>
      </trkpt>
      <trkpt lat="47.66881" lon="5.99866">
        <ele>248.65634155273</ele>
        <time>2018-09-01T12:12:53Z</time>
      </trkpt>
      <trkpt lat="47.6688" lon="5.99883">
        <ele>247.48049926758</ele>
        <time>2018-09-01T12:13:14Z</time>
      </trkpt>
      <trkpt lat="47.6687" lon="5.999">
        <ele>246.27897644043</ele>
        <time>2018-09-01T12:13:17Z</time>
      </trkpt>
      <trkpt lat="47.66852" lon="5.99919">
        <ele>244.59451293945</ele>
        <time>2018-09-01T12:13:19Z</time>
      </trkpt>
      <trkpt lat="47.66837" lon="5.99953">
        <ele>243.36918640137</ele>
        <time>2018-09-01T12:13:23Z</time>
      </trkpt>
      <trkpt lat="47.66824" lon="5.99992">
        <ele>242.76132202148</ele>
        <time>2018-09-01T12:14:16Z</time>
      </trkpt>
      <trkpt lat="47.66808" lon="6.00029">
        <ele>244.44409179688</ele>
        <time>2018-09-01T12:14:16Z</time>
      </trkpt>
      <trkpt lat="47.66796" lon="6.00054">
        <ele>245.08728027344</ele>
        <time>2018-09-01T12:14:54Z</time>
      </trkpt>
      <trkpt lat="47.66767" lon="6.00103">
        <ele>246.30328369141</ele>
        <time>2018-09-01T12:14:58Z</time>
      </trkpt>
      <trkpt lat="47.6676" lon="6.00112">
        <ele>246.49475097656</ele>
        <time>2018-09-01T12:15:04Z</time>
      </trkpt>
      <trkpt lat="47.66755" lon="6.0011">
        <ele>247.25205993652</ele>
        <time>2018-09-01T12:15:19Z</time>
      </trkpt>
      <trkpt lat="47.66755" lon="6.0011">
        <ele>247.25205993652</ele>
        <time>2018-09-01T12:15:25Z</time>
      </trkpt>
      <trkpt lat="47.6676" lon="6.00112">
        <ele>246.49475097656</ele>
        <time>2018-09-01T12:15:28Z</time>
      </trkpt>
      <trkpt lat="47.66761" lon="6.00119">
        <ele>246.24716186523</ele>
        <time>2018-09-01T12:15:33Z</time>
      </trkpt>
      <trkpt lat="47.66762" lon="6.00138">
        <ele>246.00457763672</ele>
        <time>2018-09-01T12:15:38Z</time>
      </trkpt>
      <trkpt lat="47.66757" lon="6.00181">
        <ele>246.5890045166</ele>
        <time>2018-09-01T12:16:15Z</time>
      </trkpt>
      <trkpt lat="47.66742" lon="6.00255">
        <ele>246.61042785645</ele>
        <time>2018-09-01T12:16:29Z</time>
      </trkpt>
      <trkpt lat="47.66732" lon="6.00305">
        <ele>246.39543151855</ele>
        <time>2018-09-01T12:16:29Z</time>
      </trkpt>
      <trkpt lat="47.66719" lon="6.00347">
        <ele>246.76261901855</ele>
        <time>2018-09-01T12:16:31Z</time>
      </trkpt>
      <trkpt lat="47.66701" lon="6.00394">
        <ele>247.7398223877</ele>
        <time>2018-09-01T12:16:52Z</time>
      </trkpt>
      <trkpt lat="47.66677" lon="6.00434">
        <ele>248.28727722168</ele>
        <time>2018-09-01T12:16:57Z</time>
      </trkpt>
      <trkpt lat="47.66647" lon="6.0048">
        <ele>248.3943939209</ele>
        <time>2018-09-01T12:17:02Z</time>
      </trkpt>
      <trkpt lat="47.666" lon="6.00567">
        <ele>246.12066650391</ele>
        <time>2018-09-01T12:17:06Z</time>
      </trkpt>
      <trkpt lat="47.66579" lon="6.00613">
        <ele>244.25845336914</ele>
        <time>2018-09-01T12:17:13Z</time>
      </trkpt>
      <trkpt lat="47.66568" lon="6.00647">
        <ele>243.0044708252</ele>
        <time>2018-09-01T12:17:22Z</time>
      </trkpt>
      <trkpt lat="47.6656" lon="6.00666">
        <ele>241.81887817383</ele>
        <time>2018-09-01T12:17:32Z</time>
      </trkpt>
      <trkpt lat="47.66503" lon="6.00759">
        <ele>238.22229003906</ele>
        <time>2018-09-01T12:17:37Z</time>
      </trkpt>
      <trkpt lat="47.6639" lon="6.0092">
        <ele>236.04301452637</ele>
        <time>2018-09-01T12:17:57Z</time>
      </trkpt>
      <trkpt lat="47.66354" lon="6.00967">
        <ele>234.82272338867</ele>
        <time>2018-09-01T12:17:59Z</time>
      </trkpt>
      <trkpt lat="47.66326" lon="6.00995">
        <ele>234.57942199707</ele>
        <time>2018-09-01T12:18:01Z</time>
      </trkpt>
      <trkpt lat="47.66272" lon="6.01028">
        <ele>231.84475708008</ele>
        <time>2018-09-01T12:18:28Z</time>
      </trkpt>
      <trkpt lat="47.66237" lon="6.01048">
        <ele>230.51194763184</ele>
        <time>2018-09-01T12:18:39Z</time>
      </trkpt>
      <trkpt lat="47.66184" lon="6.01053">
        <ele>227.04850769043</ele>
        <time>2018-09-01T12:18:50Z</time>
      </trkpt>
      <trkpt lat="47.66148" lon="6.01057">
        <ele>224.80729675293</ele>
        <time>2018-09-01T12:19:15Z</time>
      </trkpt>
      <trkpt lat="47.66115" lon="6.01033">
        <ele>222.42539978027</ele>
        <time>2018-09-01T12:19:17Z</time>
      </trkpt>
      <trkpt lat="47.66098" lon="6.01017">
        <ele>221.33203125</ele>
        <time>2018-09-01T12:19:19Z</time>
      </trkpt>
      <trkpt lat="47.66064" lon="6.00985">
        <ele>220</ele>
        <time>2018-09-01T12:19:23Z</time>
      </trkpt>
      <trkpt lat="47.66032" lon="6.00957">
        <ele>220</ele>
        <time>2018-09-01T12:19:44Z</time>
      </trkpt>
      <trkpt lat="47.66018" lon="6.00946">
        <ele>220.10458374023</ele>
        <time>2018-09-01T12:19:47Z</time>
      </trkpt>
      <trkpt lat="47.66008" lon="6.00944">
        <ele>220.12130737305</ele>
        <time>2018-09-01T12:19:49Z</time>
      </trkpt>
      <trkpt lat="47.6599" lon="6.00955">
        <ele>219.78005981445</ele>
        <time>2018-09-01T12:19:53Z</time>
      </trkpt>
      <trkpt lat="47.6598" lon="6.00964">
        <ele>219.74757385254</ele>
        <time>2018-09-01T12:20:46Z</time>
      </trkpt>
      <trkpt lat="47.65979" lon="6.00962">
        <ele>219.71473693848</ele>
        <time>2018-09-01T12:20:46Z</time>
      </trkpt>
      <trkpt lat="47.65976" lon="6.00958">
        <ele>219.63188171387</ele>
        <time>2018-09-01T12:21:24Z</time>
      </trkpt>
    </trkseg>
  </trk>
</gpx>